Time;durP1;ratioP1;P1;durP2;ratioP2;P2;SDS_P1;SDS_P2;PMS_P1;PMS_P2;Temp;Humidity;BMP_temperature;BMP_pressure;BME280_temperature;BME280_humidity;BME280_pressure;Samples;Min_cycle;Max_cycle;Signal;HPM_P1;HPM_P2
2022/03/10 00:01:22;;;;;;;10.30;5.00;;;;;;;;;;5070727;28;20510;-74
2022/03/10 00:03:48;;;;;;;11.88;5.20;;;;;;;;;;5090191;27;20071;-74
2022/03/10 00:06:14;;;;;;;9.95;6.57;;;;;;;;;;5076660;28;20548;-74
2022/03/10 00:08:41;;;;;;;8.85;4.82;;;;;;;;;;5073501;28;20118;-73
2022/03/10 00:11:07;;;;;;;9.57;5.63;;;;;;;;;;5074731;28;20082;-74
2022/03/10 00:13:33;;;;;;;9.95;5.45;;;;;;;;;;5070694;28;20121;-72
2022/03/10 00:15:59;;;;;;;8.90;5.35;;;;;;;;;;5063308;28;20128;-74
2022/03/10 00:18:26;;;;;;;9.02;4.95;;;;;;;;;;5065343;28;20076;-74
2022/03/10 00:20:52;;;;;;;9.80;5.65;;;;;;;;;;5071022;28;20033;-74
2022/03/10 00:23:18;;;;;;;10.60;4.97;;;;;;;;;;5069976;28;20036;-73
2022/03/10 00:25:44;;;;;;;9.70;5.18;;;;;;;;;;5069152;28;21305;-74
2022/03/10 00:28:10;;;;;;;8.98;5.05;;;;;;;;;;5068236;28;20037;-74
2022/03/10 00:30:37;;;;;;;9.63;4.82;;;;;;;;;;5071043;28;20036;-74
2022/03/10 00:33:03;;;;;;;10.98;4.57;;;;;;;;;;5072539;28;20049;-74
2022/03/10 00:35:29;;;;;;;6.93;5.25;;;;;;;;;;5065620;28;20124;-74
2022/03/10 00:37:55;;;;;;;11.23;5.78;;;;;;;;;;5073847;28;20130;-73
2022/03/10 00:40:22;;;;;;;9.23;5.22;;;;;;;;;;5071575;28;20040;-74
2022/03/10 00:42:48;;;;;;;7.63;5.03;;;;;;;;;;5068197;28;20610;-74
2022/03/10 00:45:15;;;;;;;8.52;5.35;;;;;;;;;;5072432;28;20045;-74
2022/03/10 00:47:41;;;;;;;9.82;5.30;;;;;;;;;;5073016;28;20048;-74
2022/03/10 00:50:08;;;;;;;12.27;5.97;;;;;;;;;;5067363;28;20068;-74
2022/03/10 00:52:39;;;;;;;9.70;5.32;;;;;;;;;;5067546;28;20045;-74
2022/03/10 00:55:05;;;;;;;9.40;4.88;;;;;;;;;;5069890;28;20072;-74
2022/03/10 00:57:31;;;;;;;12.93;5.30;;;;;;;;;;5073660;28;20048;-74
2022/03/10 00:59:57;;;;;;;10.90;5.07;;;;;;;;;;5068410;28;20068;-74
2022/03/10 01:02:24;;;;;;;12.65;5.25;;;;;;;;;;5071606;28;20051;-73
2022/03/10 01:04:50;;;;;;;15.05;5.20;;;;;;;;;;5068417;28;20127;-74
2022/03/10 01:07:16;;;;;;;10.27;5.28;;;;;;;;;;5069238;28;20041;-74
2022/03/10 01:09:42;;;;;;;11.00;5.70;;;;;;;;;;5063988;28;20056;-74
2022/03/10 01:12:08;;;;;;;10.05;5.50;;;;;;;;;;5069220;28;20041;-73
2022/03/10 01:14:34;;;;;;;12.45;5.28;;;;;;;;;;5065872;28;20136;-74
2022/03/10 01:17:00;;;;;;;9.00;4.35;;;;;;;;;;5065139;28;20566;-73
2022/03/10 01:19:27;;;;;;;10.88;5.95;;;;;;;;;;5078159;28;20036;-73
2022/03/10 01:21:53;;;;;;;11.73;5.95;;;;;;;;;;5074339;28;20044;-74
2022/03/10 01:24:20;;;;;;;9.15;4.82;;;;;;;;;;5069685;28;20564;-74
2022/03/10 01:26:46;;;;;;;11.52;5.43;;;;;;;;;;5066176;28;20127;-73
2022/03/10 01:29:13;;;;;;;14.25;5.55;;;;;;;;;;5078439;28;20128;-73
2022/03/10 01:31:39;;;;;;;10.95;5.05;;;;;;;;;;5067824;28;20202;-74
2022/03/10 01:34:06;;;;;;;12.38;5.72;;;;;;;;;;5068815;28;20045;-74
2022/03/10 01:36:32;;;;;;;10.30;5.65;;;;;;;;;;5069580;28;20047;-74
2022/03/10 01:38:58;;;;;;;8.57;5.20;;;;;;;;;;5071938;28;20041;-74
2022/03/10 01:41:24;;;;;;;10.30;5.47;;;;;;;;;;5074749;28;20048;-73
2022/03/10 01:44:01;;;;;;;14.93;5.55;;;;;;;;;;5062740;28;20140;-74
2022/03/10 01:46:27;;;;;;;9.05;5.15;;;;;;;;;;5067918;28;20047;-73
2022/03/10 01:48:53;;;;;;;10.02;5.25;;;;;;;;;;5065632;28;22040;-74
2022/03/10 01:51:20;;;;;;;9.88;4.47;;;;;;;;;;5066417;28;20120;-73
2022/03/10 01:53:48;;;;;;;9.45;5.60;;;;;;;;;;5067841;28;20052;-73
2022/03/10 01:56:15;;;;;;;10.48;5.32;;;;;;;;;;5066614;28;20634;-73
2022/03/10 01:58:41;;;;;;;8.15;4.70;;;;;;;;;;5068839;28;21065;-74
2022/03/10 02:01:09;;;;;;;9.93;5.03;;;;;;;;;;5066614;28;20091;-74
2022/03/10 02:03:35;;;;;;;13.23;5.93;;;;;;;;;;5072153;28;20123;-73
2022/03/10 02:06:01;;;;;;;8.85;5.10;;;;;;;;;;5070600;28;20073;-73
2022/03/10 02:11:12;;;;;;;11.55;6.68;;;;;;;;;;5070063;28;20056;-73
2022/03/10 02:13:38;;;;;;;8.80;5.13;;;;;;;;;;5066211;28;20120;-73
2022/03/10 02:18:50;;;;;;;10.23;5.53;;;;;;;;;;5068621;28;20525;-74
2022/03/10 02:21:16;;;;;;;10.27;5.43;;;;;;;;;;5069509;28;20047;-74
2022/03/10 02:23:43;;;;;;;7.72;4.78;;;;;;;;;;5064781;28;20139;-74
2022/03/10 02:26:10;;;;;;;9.25;5.40;;;;;;;;;;5068669;28;20060;-73
2022/03/10 02:28:36;;;;;;;9.10;5.47;;;;;;;;;;5076989;28;20056;-74
2022/03/10 02:31:02;;;;;;;8.35;4.80;;;;;;;;;;5073400;28;20044;-73
2022/03/10 02:33:28;;;;;;;13.55;6.40;;;;;;;;;;5073931;28;20088;-73
2022/03/10 02:35:54;;;;;;;7.70;4.78;;;;;;;;;;5071393;28;20527;-74
2022/03/10 02:38:20;;;;;;;11.60;5.85;;;;;;;;;;5074427;28;20044;-74
2022/03/10 02:40:47;;;;;;;13.10;5.30;;;;;;;;;;5066039;28;20045;-74
2022/03/10 02:43:13;;;;;;;13.65;6.57;;;;;;;;;;5066779;28;20051;-73
2022/03/10 02:45:40;;;;;;;9.93;5.38;;;;;;;;;;5067740;28;20565;-73
2022/03/10 02:48:06;;;;;;;7.88;4.43;;;;;;;;;;5071638;28;20803;-74
2022/03/10 02:50:32;;;;;;;9.15;5.05;;;;;;;;;;5071304;28;20079;-74
2022/03/10 02:52:58;;;;;;;8.93;5.50;;;;;;;;;;5067330;28;20040;-73
2022/03/10 02:55:24;;;;;;;11.30;5.20;;;;;;;;;;5074637;28;20124;-74
2022/03/10 02:57:50;;;;;;;11.43;5.25;;;;;;;;;;5069360;28;20052;-74
2022/03/10 03:00:18;;;;;;;9.30;5.47;;;;;;;;;;5066269;28;20048;-73
2022/03/10 03:02:46;;;;;;;8.90;4.70;;;;;;;;;;5070303;28;20044;-74
2022/03/10 03:05:12;;;;;;;8.75;4.82;;;;;;;;;;5082566;27;20040;-73
2022/03/10 03:07:39;;;;;;;7.57;4.55;;;;;;;;;;5096144;27;20066;-74
2022/03/10 03:10:05;;;;;;;8.57;5.00;;;;;;;;;;5078319;27;20190;-74
2022/03/10 03:12:31;;;;;;;11.60;5.25;;;;;;;;;;5078156;27;20032;-74
2022/03/10 03:14:58;;;;;;;8.25;4.78;;;;;;;;;;5080324;27;20040;-73
2022/03/10 03:17:27;;;;;;;8.55;5.22;;;;;;;;;;5073581;27;20894;-74
2022/03/10 03:19:54;;;;;;;11.45;5.05;;;;;;;;;;5067872;27;20166;-74
2022/03/10 03:22:20;;;;;;;9.27;4.65;;;;;;;;;;5076248;27;20041;-77
2022/03/10 03:24:46;;;;;;;8.90;4.57;;;;;;;;;;5075859;27;20082;-77
2022/03/10 03:27:13;;;;;;;10.75;5.90;;;;;;;;;;5098100;27;20042;-77
2022/03/10 03:29:39;;;;;;;8.77;4.88;;;;;;;;;;5081456;28;20538;-77
2022/03/10 03:32:05;;;;;;;10.10;4.88;;;;;;;;;;5101234;27;20043;-78
2022/03/10 03:34:31;;;;;;;11.68;4.97;;;;;;;;;;5077455;28;20291;-77
2022/03/10 03:36:57;;;;;;;9.10;4.30;;;;;;;;;;5083532;28;20040;-77
2022/03/10 03:39:23;;;;;;;9.48;4.97;;;;;;;;;;5075489;28;20156;-77
2022/03/10 03:41:49;;;;;;;12.23;5.22;;;;;;;;;;5092430;27;20037;-77
2022/03/10 03:44:16;;;;;;;9.52;5.28;;;;;;;;;;5078885;28;20040;-77
2022/03/10 03:46:42;;;;;;;11.20;5.47;;;;;;;;;;5091270;27;20037;-77
2022/03/10 03:49:09;;;;;;;10.23;4.68;;;;;;;;;;5097091;28;20048;-77
2022/03/10 03:51:35;;;;;;;9.23;4.97;;;;;;;;;;5075829;28;20051;-78
2022/03/10 03:54:02;;;;;;;12.20;5.50;;;;;;;;;;5082765;28;20107;-77
2022/03/10 03:56:28;;;;;;;11.20;5.20;;;;;;;;;;5074999;28;20051;-77
2022/03/10 03:58:54;;;;;;;9.93;5.78;;;;;;;;;;5091674;27;20048;-77
2022/03/10 04:01:20;;;;;;;11.60;6.05;;;;;;;;;;5096646;27;20149;-77
2022/03/10 04:03:46;;;;;;;13.77;5.60;;;;;;;;;;5077178;28;20036;-77
2022/03/10 04:06:13;;;;;;;11.27;5.82;;;;;;;;;;5075122;28;20106;-77
2022/03/10 04:08:39;;;;;;;10.35;4.95;;;;;;;;;;5072736;28;20044;-77
2022/03/10 04:11:05;;;;;;;10.65;4.88;;;;;;;;;;5070704;28;20045;-77
2022/03/10 04:13:31;;;;;;;10.25;5.45;;;;;;;;;;5075305;28;20131;-76
2022/03/10 04:15:57;;;;;;;10.32;5.20;;;;;;;;;;5067960;28;20042;-77
2022/03/10 04:18:23;;;;;;;7.22;4.18;;;;;;;;;;5069569;28;20081;-77
2022/03/10 04:20:49;;;;;;;12.32;6.32;;;;;;;;;;5074102;28;20064;-77
2022/03/10 04:23:16;;;;;;;11.10;6.45;;;;;;;;;;5074245;28;20037;-77
2022/03/10 04:25:42;;;;;;;8.07;5.28;;;;;;;;;;5075474;28;20047;-77
2022/03/10 04:28:08;;;;;;;13.05;6.03;;;;;;;;;;5071526;28;20048;-77
2022/03/10 04:30:35;;;;;;;12.60;5.65;;;;;;;;;;5070487;28;20037;-77
2022/03/10 04:33:02;;;;;;;11.85;5.80;;;;;;;;;;5068884;28;20075;-77
2022/03/10 04:35:28;;;;;;;10.82;5.80;;;;;;;;;;5071581;28;20037;-78
2022/03/10 04:37:55;;;;;;;9.13;5.35;;;;;;;;;;5073768;28;20134;-77
2022/03/10 04:40:21;;;;;;;9.73;5.32;;;;;;;;;;5068514;28;20036;-77
2022/03/10 04:42:48;;;;;;;10.75;5.63;;;;;;;;;;5067875;28;20140;-77
2022/03/10 04:45:14;;;;;;;13.43;6.07;;;;;;;;;;5066654;28;20052;-77
2022/03/10 04:47:41;;;;;;;9.85;5.55;;;;;;;;;;5068703;28;20045;-77
2022/03/10 04:50:09;;;;;;;10.20;5.20;;;;;;;;;;5066743;28;20045;-77
2022/03/10 04:52:35;;;;;;;10.50;6.07;;;;;;;;;;5072754;28;20040;-77
2022/03/10 04:55:01;;;;;;;7.95;5.47;;;;;;;;;;5064604;28;20377;-76
2022/03/10 04:57:27;;;;;;;9.07;4.88;;;;;;;;;;5069964;28;20565;-77
2022/03/10 04:59:54;;;;;;;8.77;5.03;;;;;;;;;;5069303;28;20039;-77
2022/03/10 05:02:20;;;;;;;8.38;3.83;;;;;;;;;;5071941;28;20044;-77
2022/03/10 05:04:46;;;;;;;10.60;4.85;;;;;;;;;;5070508;28;20064;-77
2022/03/10 05:07:13;;;;;;;10.60;4.50;;;;;;;;;;5069407;28;20382;-77
2022/03/10 05:09:39;;;;;;;12.13;5.28;;;;;;;;;;5070907;28;20076;-77
2022/03/10 05:12:06;;;;;;;8.15;4.40;;;;;;;;;;5068246;28;20523;-77
2022/03/10 05:14:32;;;;;;;7.63;5.05;;;;;;;;;;5068841;28;20178;-77
2022/03/10 05:16:58;;;;;;;11.13;4.55;;;;;;;;;;5067748;28;20053;-77
2022/03/10 05:19:24;;;;;;;12.38;5.65;;;;;;;;;;5076488;28;20055;-77
2022/03/10 05:21:50;;;;;;;10.70;4.97;;;;;;;;;;5071231;28;20040;-77
2022/03/10 05:24:17;;;;;;;6.55;4.82;;;;;;;;;;5065994;28;20047;-77
2022/03/10 05:26:43;;;;;;;9.63;5.57;;;;;;;;;;5068753;28;20063;-77
2022/03/10 05:29:10;;;;;;;10.88;4.75;;;;;;;;;;5070470;28;20545;-77
2022/03/10 05:31:36;;;;;;;9.07;4.85;;;;;;;;;;5070566;28;20045;-77
2022/03/10 05:34:03;;;;;;;10.35;5.20;;;;;;;;;;5071897;28;20039;-76
2022/03/10 05:36:29;;;;;;;10.65;4.80;;;;;;;;;;5066344;28;20052;-78
2022/03/10 05:38:55;;;;;;;8.63;4.20;;;;;;;;;;5073402;28;20033;-77
2022/03/10 05:41:21;;;;;;;8.02;4.10;;;;;;;;;;5069773;28;20040;-77
2022/03/10 05:43:47;;;;;;;8.10;4.78;;;;;;;;;;5070633;28;20118;-78
2022/03/10 05:46:15;;;;;;;12.50;5.13;;;;;;;;;;5069618;28;20044;-81
2022/03/10 05:48:47;;;;;;;8.82;4.43;;;;;;;;;;5073873;28;20667;-81
2022/03/10 05:51:16;;;;;;;11.90;5.87;;;;;;;;;;5065386;28;20181;-81
2022/03/10 05:53:42;;;;;;;7.82;4.95;;;;;;;;;;5068249;28;20860;-80
2022/03/10 05:56:08;;;;;;;8.00;4.75;;;;;;;;;;5069084;28;20045;-80
2022/03/10 05:58:37;;;;;;;8.70;4.45;;;;;;;;;;5070418;28;20086;-81
2022/03/10 06:01:03;;;;;;;9.32;4.88;;;;;;;;;;5073681;28;20047;-80
2022/03/10 06:03:29;;;;;;;6.38;4.03;;;;;;;;;;5068173;28;20179;-80
2022/03/10 06:05:58;;;;;;;8.57;5.70;;;;;;;;;;5067723;28;20060;-78
2022/03/10 06:08:25;;;;;;;12.77;4.53;;;;;;;;;;5072329;28;20044;-75
2022/03/10 06:10:51;;;;;;;9.77;4.88;;;;;;;;;;5068471;28;20123;-75
2022/03/10 06:13:17;;;;;;;9.02;4.57;;;;;;;;;;5064986;28;20075;-75
2022/03/10 06:15:43;;;;;;;11.18;4.63;;;;;;;;;;5067263;27;20049;-75
2022/03/10 06:18:12;;;;;;;9.57;4.95;;;;;;;;;;5071237;28;20041;-80
2022/03/10 06:20:38;;;;;;;8.85;5.07;;;;;;;;;;5062974;28;20415;-76
2022/03/10 06:23:08;;;;;;;7.60;4.57;;;;;;;;;;5067966;28;20040;-80
2022/03/10 06:25:34;;;;;;;7.10;4.18;;;;;;;;;;5067558;28;20044;-75
2022/03/10 06:28:00;;;;;;;9.48;4.80;;;;;;;;;;5074856;28;20837;-75
2022/03/10 06:30:26;;;;;;;10.32;4.70;;;;;;;;;;5069733;28;20178;-74
2022/03/10 06:32:52;;;;;;;7.10;4.20;;;;;;;;;;5075264;28;20089;-74
2022/03/10 06:35:18;;;;;;;11.45;5.35;;;;;;;;;;5069432;28;20491;-75
2022/03/10 06:37:45;;;;;;;7.75;4.78;;;;;;;;;;5072294;28;20081;-75
2022/03/10 06:40:11;;;;;;;9.82;4.85;;;;;;;;;;5074187;28;20097;-74
2022/03/10 06:42:38;;;;;;;8.35;4.65;;;;;;;;;;5071540;28;20051;-75
2022/03/10 06:45:04;;;;;;;10.85;5.47;;;;;;;;;;5072631;28;20547;-75
2022/03/10 06:47:30;;;;;;;8.57;4.68;;;;;;;;;;5071690;28;20101;-75
2022/03/10 06:49:56;;;;;;;9.57;5.05;;;;;;;;;;5067396;28;20028;-75
2022/03/10 06:52:22;;;;;;;8.68;4.53;;;;;;;;;;5064916;28;20087;-77
2022/03/10 06:54:48;;;;;;;7.47;4.82;;;;;;;;;;5071007;28;20044;-75
2022/03/10 06:57:15;;;;;;;9.30;4.72;;;;;;;;;;5066922;28;20048;-75
2022/03/10 06:59:41;;;;;;;9.98;4.55;;;;;;;;;;5070053;28;20044;-78
2022/03/10 07:02:08;;;;;;;8.13;4.32;;;;;;;;;;5067901;28;20040;-79
2022/03/10 07:04:34;;;;;;;7.13;4.22;;;;;;;;;;5062711;28;20068;-77
2022/03/10 07:07:00;;;;;;;6.50;4.88;;;;;;;;;;5070756;28;20135;-78
2022/03/10 07:09:26;;;;;;;7.20;3.97;;;;;;;;;;5064657;28;20044;-78
2022/03/10 07:11:52;;;;;;;10.10;5.47;;;;;;;;;;5068058;28;20095;-77
2022/03/10 07:14:18;;;;;;;8.35;4.32;;;;;;;;;;5067970;28;20836;-77
2022/03/10 07:16:44;;;;;;;8.52;4.75;;;;;;;;;;5068036;28;20048;-77
2022/03/10 07:19:12;;;;;;;6.85;3.90;;;;;;;;;;5066938;28;20040;-77
2022/03/10 07:21:38;;;;;;;7.70;4.28;;;;;;;;;;5071330;28;20044;-77
2022/03/10 07:24:05;;;;;;;7.13;3.97;;;;;;;;;;5069688;28;20132;-77
2022/03/10 07:26:31;;;;;;;8.50;4.20;;;;;;;;;;5068033;28;20033;-77
2022/03/10 07:28:59;;;;;;;7.65;3.85;;;;;;;;;;5068169;28;20739;-77
2022/03/10 07:31:26;;;;;;;10.00;4.60;;;;;;;;;;5068424;28;20048;-77
2022/03/10 07:33:52;;;;;;;9.25;4.22;;;;;;;;;;5064765;28;20041;-78
2022/03/10 07:36:18;;;;;;;8.60;3.83;;;;;;;;;;5068561;28;20365;-75
2022/03/10 07:38:44;;;;;;;9.73;4.40;;;;;;;;;;5070326;28;20033;-76
2022/03/10 07:41:10;;;;;;;9.10;3.97;;;;;;;;;;5069413;28;20087;-78
2022/03/10 07:43:36;;;;;;;8.68;3.95;;;;;;;;;;5064144;28;20063;-77
2022/03/10 07:46:06;;;;;;;8.20;4.22;;;;;;;;;;5067923;28;20044;-78
2022/03/10 07:48:32;;;;;;;7.40;3.88;;;;;;;;;;5071815;28;20040;-78
2022/03/10 07:50:58;;;;;;;9.50;3.75;;;;;;;;;;5066634;28;20226;-75
2022/03/10 07:53:24;;;;;;;6.60;3.90;;;;;;;;;;5072884;28;20040;-77
2022/03/10 07:55:54;;;;;;;8.75;4.28;;;;;;;;;;5073226;28;20052;-76
2022/03/10 07:58:23;;;;;;;7.40;3.88;;;;;;;;;;5069043;28;20175;-76
2022/03/10 08:00:49;;;;;;;9.30;4.25;;;;;;;;;;5069110;28;20095;-77
2022/03/10 08:03:15;;;;;;;10.15;4.57;;;;;;;;;;5075023;28;20081;-76
2022/03/10 08:05:43;;;;;;;9.57;4.68;;;;;;;;;;5085278;27;20112;-77
2022/03/10 08:08:09;;;;;;;7.18;3.83;;;;;;;;;;5067526;27;20148;-77
2022/03/10 08:10:36;;;;;;;11.77;4.88;;;;;;;;;;5072178;28;20131;-77
2022/03/10 08:13:02;;;;;;;7.97;4.30;;;;;;;;;;5090367;27;20104;-77
2022/03/10 08:15:28;;;;;;;9.55;4.43;;;;;;;;;;5074603;28;20067;-77
2022/03/10 08:17:54;;;;;;;8.15;4.25;;;;;;;;;;5071294;28;20071;-77
2022/03/10 08:20:20;;;;;;;10.27;4.50;;;;;;;;;;5101274;27;20032;-77
2022/03/10 08:22:49;;;;;;;9.27;4.20;;;;;;;;;;5076803;28;20036;-77
2022/03/10 08:25:15;;;;;;;10.77;4.03;;;;;;;;;;5078418;28;20265;-77
2022/03/10 08:27:41;;;;;;;7.32;4.10;;;;;;;;;;5078860;28;20613;-77
2022/03/10 08:30:07;;;;;;;7.25;3.80;;;;;;;;;;5067211;28;20083;-77
2022/03/10 08:32:33;;;;;;;9.75;5.53;;;;;;;;;;5094406;27;20040;-77
2022/03/10 08:35:00;;;;;;;9.60;4.15;;;;;;;;;;5068009;28;20090;-77
2022/03/10 08:37:26;;;;;;;8.18;4.43;;;;;;;;;;5095490;27;20078;-77
2022/03/10 08:39:52;;;;;;;13.05;4.97;;;;;;;;;;5075839;28;20098;-77
2022/03/10 08:42:18;;;;;;;6.78;3.97;;;;;;;;;;5075482;27;20867;-77
2022/03/10 08:44:44;;;;;;;7.82;4.03;;;;;;;;;;5071930;28;20070;-77
2022/03/10 08:47:10;;;;;;;6.28;4.30;;;;;;;;;;5099720;27;20123;-77
2022/03/10 08:49:36;;;;;;;12.25;4.05;;;;;;;;;;5093821;27;20070;-77
2022/03/10 08:52:02;;;;;;;8.38;4.28;;;;;;;;;;5077099;27;20105;-78
2022/03/10 08:54:28;;;;;;;10.25;4.70;;;;;;;;;;5099068;27;20036;-78
2022/03/10 08:56:54;;;;;;;8.77;3.97;;;;;;;;;;5070472;28;20037;-77
2022/03/10 08:59:20;;;;;;;7.30;4.65;;;;;;;;;;5076126;27;20701;-77
2022/03/10 09:01:46;;;;;;;7.75;3.88;;;;;;;;;;5092086;27;20045;-77
2022/03/10 09:04:12;;;;;;;11.13;5.32;;;;;;;;;;5074117;27;20123;-76
2022/03/10 09:06:38;;;;;;;6.72;3.78;;;;;;;;;;5081677;27;20666;-80
2022/03/10 09:09:05;;;;;;;10.55;5.25;;;;;;;;;;5081480;27;20044;-78
2022/03/10 09:11:31;;;;;;;8.82;4.50;;;;;;;;;;5075131;27;20091;-76
2022/03/10 09:13:57;;;;;;;8.18;3.95;;;;;;;;;;5098921;27;20121;-77
2022/03/10 09:16:24;;;;;;;8.10;4.22;;;;;;;;;;5078620;27;20049;-77
2022/03/10 09:18:50;;;;;;;9.57;4.10;;;;;;;;;;5080348;28;20037;-77
2022/03/10 09:21:17;;;;;;;12.38;5.60;;;;;;;;;;5075861;28;20615;-77
2022/03/10 09:23:43;;;;;;;7.75;3.90;;;;;;;;;;5075965;28;20048;-77
2022/03/10 09:26:09;;;;;;;9.70;4.55;;;;;;;;;;5094307;27;20040;-77
2022/03/10 09:28:36;;;;;;;7.60;4.13;;;;;;;;;;5079217;28;20040;-77
2022/03/10 09:31:02;;;;;;;8.23;4.55;;;;;;;;;;5089941;27;20044;-76
2022/03/10 09:33:28;;;;;;;6.85;3.78;;;;;;;;;;5088803;27;20592;-77
2022/03/10 09:35:56;;;;;;;8.23;4.15;;;;;;;;;;5093575;27;20068;-77
2022/03/10 09:38:22;;;;;;;7.10;4.22;;;;;;;;;;5070009;28;20119;-76
2022/03/10 09:40:54;;;;;;;10.45;4.53;;;;;;;;;;5070764;28;20102;-77
2022/03/10 09:43:22;;;;;;;14.73;4.85;;;;;;;;;;5072414;28;20083;-77
2022/03/10 09:45:49;;;;;;;13.88;4.03;;;;;;;;;;5073334;28;20051;-77
2022/03/10 09:48:16;;;;;;;7.57;3.88;;;;;;;;;;5076731;28;20044;-78
2022/03/10 09:50:42;;;;;;;8.10;3.80;;;;;;;;;;5072268;28;20055;-76
2022/03/10 09:53:08;;;;;;;7.57;3.95;;;;;;;;;;5093293;27;20127;-77
2022/03/10 09:55:35;;;;;;;6.18;3.40;;;;;;;;;;5080583;28;20210;-77
2022/03/10 09:58:01;;;;;;;8.05;3.45;;;;;;;;;;5078118;27;20592;-77
2022/03/10 10:00:28;;;;;;;6.65;4.03;;;;;;;;;;5091428;27;20527;-76
2022/03/10 10:02:55;;;;;;;5.32;3.33;;;;;;;;;;5077390;28;20036;-76
2022/03/10 10:05:22;;;;;;;5.80;3.40;;;;;;;;;;5067957;28;20053;-76
2022/03/10 10:08:09;;;;;;;6.65;3.40;;;;;;;;;;5077157;28;20550;-76
2022/03/10 10:10:37;;;;;;;6.65;3.22;;;;;;;;;;5067141;28;20562;-77
2022/03/10 10:13:06;;;;;;;8.52;3.58;;;;;;;;;;5071054;28;20044;-77
2022/03/10 10:15:35;;;;;;;5.05;3.22;;;;;;;;;;5076927;28;21641;-76
2022/03/10 10:18:02;;;;;;;6.70;3.88;;;;;;;;;;5065408;28;20045;-77
2022/03/10 10:20:32;;;;;;;7.32;3.50;;;;;;;;;;5075419;28;20114;-77
2022/03/10 10:23:15;;;;;;;8.68;4.00;;;;;;;;;;5071103;28;20612;-76
2022/03/10 10:25:48;;;;;;;8.60;3.15;;;;;;;;;;5070421;28;20048;-77
2022/03/10 10:28:27;;;;;;;7.85;3.22;;;;;;;;;;5075056;28;20820;-76
2022/03/10 10:30:54;;;;;;;4.97;3.13;;;;;;;;;;5066347;28;20068;-79
2022/03/10 10:33:21;;;;;;;6.28;3.30;;;;;;;;;;5073008;28;20108;-76
2022/03/10 10:35:47;;;;;;;6.45;3.75;;;;;;;;;;5071272;28;20048;-76
2022/03/10 10:38:28;;;;;;;6.15;3.28;;;;;;;;;;5065755;28;20040;-76
2022/03/10 10:41:14;;;;;;;5.40;3.42;;;;;;;;;;5076043;28;20182;-77
2022/03/10 10:43:49;;;;;;;4.38;2.63;;;;;;;;;;5072017;28;20785;-77
2022/03/10 10:46:25;;;;;;;8.52;3.78;;;;;;;;;;5065913;28;20329;-77
2022/03/10 10:48:51;;;;;;;6.72;3.47;;;;;;;;;;5071394;28;20056;-77
2022/03/10 10:51:36;;;;;;;8.15;3.72;;;;;;;;;;5069835;28;20098;-77
2022/03/10 10:54:04;;;;;;;8.20;3.17;;;;;;;;;;5067943;28;20063;-77
2022/03/10 10:56:30;;;;;;;5.40;3.03;;;;;;;;;;5063045;28;20123;-76
2022/03/10 10:58:57;;;;;;;7.00;3.92;;;;;;;;;;5068809;28;20094;-77
2022/03/10 11:01:30;;;;;;;5.95;3.28;;;;;;;;;;5074656;28;20049;-77
2022/03/10 11:03:56;;;;;;;10.93;3.40;;;;;;;;;;5069126;28;20029;-77
2022/03/10 11:06:22;;;;;;;6.40;3.67;;;;;;;;;;5075149;28;20136;-77
2022/03/10 11:08:49;;;;;;;5.13;2.88;;;;;;;;;;5071093;28;20811;-77
2022/03/10 11:11:16;;;;;;;4.75;2.83;;;;;;;;;;5071963;28;20037;-76
2022/03/10 11:13:42;;;;;;;5.38;2.72;;;;;;;;;;5074355;28;20064;-77
2022/03/10 11:16:08;;;;;;;4.40;2.88;;;;;;;;;;5068444;28;20045;-76
2022/03/10 11:18:35;;;;;;;10.93;4.28;;;;;;;;;;5066948;28;20041;-76
2022/03/10 11:21:11;;;;;;;3.60;2.33;;;;;;;;;;5066410;28;20047;-77
2022/03/10 11:23:58;;;;;;;6.55;3.50;;;;;;;;;;5068703;28;20040;-77
2022/03/10 11:26:44;;;;;;;4.25;2.88;;;;;;;;;;5019949;28;20530;-77
2022/03/10 11:29:10;;;;;;;4.55;2.78;;;;;;;;;;5078888;28;20721;-78
2022/03/10 11:31:37;;;;;;;6.13;2.65;;;;;;;;;;5067613;28;20581;-77
2022/03/10 11:34:03;;;;;;;4.50;2.40;;;;;;;;;;5072422;28;20041;-76
2022/03/10 11:36:33;;;;;;;5.05;2.58;;;;;;;;;;5067145;28;20045;-77
2022/03/10 11:39:05;;;;;;;6.57;3.22;;;;;;;;;;5074082;28;20126;-77
2022/03/10 11:41:45;;;;;;;6.25;2.92;;;;;;;;;;5072163;28;20045;-76
2022/03/10 11:44:11;;;;;;;7.43;4.18;;;;;;;;;;5076360;28;20517;-77
2022/03/10 11:46:50;;;;;;;10.52;2.65;;;;;;;;;;5074493;28;20481;-78
2022/03/10 11:49:17;;;;;;;6.80;2.72;;;;;;;;;;5071872;28;20128;-77
2022/03/10 11:51:44;;;;;;;5.03;2.83;;;;;;;;;;5072906;28;20063;-77
2022/03/10 11:54:11;;;;;;;3.88;2.63;;;;;;;;;;5078710;28;20088;-77
2022/03/10 11:56:44;;;;;;;6.82;2.78;;;;;;;;;;5074533;28;20141;-77
2022/03/10 11:59:22;;;;;;;4.18;2.53;;;;;;;;;;5076537;28;20548;-77
2022/03/10 12:01:48;;;;;;;6.30;2.90;;;;;;;;;;5069661;28;20064;-77
2022/03/10 12:04:18;;;;;;;4.88;2.95;;;;;;;;;;5076853;28;20053;-77
2022/03/10 12:06:49;;;;;;;5.38;2.90;;;;;;;;;;5079999;27;20125;-77
2022/03/10 12:09:26;;;;;;;4.70;2.95;;;;;;;;;;5074247;27;20102;-77
2022/03/10 12:11:52;;;;;;;5.45;2.88;;;;;;;;;;5072096;28;20049;-77
2022/03/10 12:14:25;;;;;;;4.10;2.22;;;;;;;;;;5089849;27;20048;-77
2022/03/10 12:16:52;;;;;;;6.88;2.28;;;;;;;;;;5072673;28;20084;-77
2022/03/10 12:19:18;;;;;;;4.55;2.50;;;;;;;;;;5089512;27;20099;-77
2022/03/10 12:21:44;;;;;;;3.92;2.45;;;;;;;;;;5077720;27;20607;-78
2022/03/10 12:24:13;;;;;;;5.00;2.50;;;;;;;;;;5095510;27;20046;-77
2022/03/10 12:26:42;;;;;;;3.67;2.00;;;;;;;;;;5074905;28;20041;-77
2022/03/10 12:29:09;;;;;;;3.42;1.67;;;;;;;;;;5081218;28;20040;-77
2022/03/10 12:31:36;;;;;;;4.60;2.47;;;;;;;;;;5093060;27;20561;-78
2022/03/10 12:34:03;;;;;;;2.80;1.98;;;;;;;;;;5079555;28;20041;-77
2022/03/10 12:36:41;;;;;;;4.20;2.10;;;;;;;;;;5098788;27;20044;-77
2022/03/10 12:39:15;;;;;;;7.78;2.35;;;;;;;;;;5093008;27;20044;-77
2022/03/10 12:41:47;;;;;;;3.75;2.15;;;;;;;;;;5069900;28;21060;-76
2022/03/10 12:44:13;;;;;;;4.30;3.05;;;;;;;;;;5071022;27;20060;-77
2022/03/10 12:46:44;;;;;;;5.15;2.60;;;;;;;;;;5085638;27;20048;-77
2022/03/10 12:49:20;;;;;;;4.10;2.35;;;;;;;;;;5069126;27;20045;-77
2022/03/10 12:51:47;;;;;;;4.13;2.33;;;;;;;;;;5069546;27;20072;-77
2022/03/10 12:54:13;;;;;;;3.88;2.15;;;;;;;;;;5079958;27;20516;-77
2022/03/10 12:56:46;;;;;;;6.95;2.40;;;;;;;;;;5076220;27;20044;-77
2022/03/10 12:59:13;;;;;;;3.22;1.83;;;;;;;;;;5072620;27;20067;-77
2022/03/10 13:01:39;;;;;;;3.65;2.15;;;;;;;;;;5076160;27;20048;-77
2022/03/10 13:04:12;;;;;;;4.38;2.05;;;;;;;;;;5077197;27;20143;-77
2022/03/10 13:06:38;;;;;;;4.07;1.85;;;;;;;;;;5057282;28;20122;-77
2022/03/10 13:09:04;;;;;;;3.80;1.95;;;;;;;;;;5052192;28;20045;-77
2022/03/10 13:11:33;;;;;;;4.20;2.50;;;;;;;;;;5059288;28;20490;-78
2022/03/10 13:14:02;;;;;;;4.85;1.90;;;;;;;;;;5050334;28;20041;-77
2022/03/10 13:16:32;;;;;;;3.75;2.17;;;;;;;;;;5046425;28;20053;-78
2022/03/10 13:18:58;;;;;;;4.05;2.05;;;;;;;;;;5061314;28;20041;-77
2022/03/10 13:21:24;;;;;;;3.13;1.70;;;;;;;;;;5047051;28;20111;-77
2022/03/10 13:23:50;;;;;;;3.45;1.67;;;;;;;;;;5050068;28;20042;-77
2022/03/10 13:26:20;;;;;;;3.25;1.80;;;;;;;;;;5055069;28;20041;-77
2022/03/10 13:28:47;;;;;;;2.67;1.70;;;;;;;;;;5054192;28;20554;-77
2022/03/10 13:31:13;;;;;;;2.70;2.08;;;;;;;;;;5047877;28;20532;-77
2022/03/10 13:33:39;;;;;;;3.58;1.70;;;;;;;;;;5054097;28;20049;-77
2022/03/10 13:36:05;;;;;;;3.60;1.52;;;;;;;;;;5050713;28;20044;-76
2022/03/10 13:38:33;;;;;;;2.03;1.38;;;;;;;;;;5047571;28;20049;-77
2022/03/10 13:41:03;;;;;;;5.93;1.60;;;;;;;;;;5049488;28;20072;-78
2022/03/10 13:43:32;;;;;;;2.72;1.70;;;;;;;;;;5051837;28;20041;-78
2022/03/10 13:46:20;;;;;;;3.85;1.88;;;;;;;;;;5052126;28;20523;-77
2022/03/10 13:48:46;;;;;;;3.05;1.75;;;;;;;;;;5054642;28;20123;-76
2022/03/10 13:51:13;;;;;;;2.78;1.75;;;;;;;;;;5048378;28;20040;-77
2022/03/10 13:53:39;;;;;;;3.78;1.70;;;;;;;;;;5048523;28;20061;-76
2022/03/10 13:56:05;;;;;;;3.33;1.73;;;;;;;;;;5051815;28;20056;-77
2022/03/10 13:58:31;;;;;;;2.67;1.35;;;;;;;;;;5048871;28;20534;-79
2022/03/10 14:01:05;;;;;;;3.30;1.50;;;;;;;;;;5049093;28;20051;-77
2022/03/10 14:03:31;;;;;;;3.65;1.85;;;;;;;;;;5058682;28;20045;-77
2022/03/10 14:06:04;;;;;;;3.10;1.60;;;;;;;;;;5070471;27;20082;-78
2022/03/10 14:08:33;;;;;;;2.75;1.65;;;;;;;;;;5098003;27;20032;-77
2022/03/10 14:11:00;;;;;;;3.55;1.63;;;;;;;;;;5096566;27;20036;-77
2022/03/10 14:13:26;;;;;;;5.85;1.27;;;;;;;;;;5079851;27;20055;-77
2022/03/10 14:16:03;;;;;;;4.97;1.60;;;;;;;;;;5072107;27;20820;-76
2022/03/10 14:18:29;;;;;;;2.22;1.45;;;;;;;;;;5075715;28;20500;-76
2022/03/10 14:21:02;;;;;;;3.08;1.38;;;;;;;;;;5074863;28;20144;-75
2022/03/10 14:23:28;;;;;;;3.45;1.60;;;;;;;;;;5073433;28;20048;-75
2022/03/10 14:25:56;;;;;;;3.17;1.95;;;;;;;;;;5070648;28;20070;-76
2022/03/10 14:28:42;;;;;;;4.63;1.92;;;;;;;;;;5069188;28;20044;-76
2022/03/10 14:31:09;;;;;;;5.13;2.10;;;;;;;;;;5074778;27;20040;-75
2022/03/10 14:33:35;;;;;;;2.78;1.58;;;;;;;;;;5073295;28;21011;-77
2022/03/10 14:36:01;;;;;;;3.53;1.63;;;;;;;;;;5088598;27;20872;-76
2022/03/10 14:38:36;;;;;;;4.82;2.00;;;;;;;;;;5073811;27;20066;-80
2022/03/10 14:41:03;;;;;;;3.55;2.63;;;;;;;;;;5072562;27;20044;-82
2022/03/10 14:43:29;;;;;;;3.42;1.45;;;;;;;;;;5076941;27;20040;-77
2022/03/10 14:46:01;;;;;;;4.25;1.80;;;;;;;;;;5077989;28;20037;-79
2022/03/10 14:48:29;;;;;;;5.20;1.92;;;;;;;;;;5069910;27;20040;-76